Time;durP1;ratioP1;P1;durP2;ratioP2;P2;SDS_P1;SDS_P2;PMS_P1;PMS_P2;Temp;Humidity;BMP_temperature;BMP_pressure;BME280_temperature;BME280_humidity;BME280_pressure;Samples;Min_cycle;Max_cycle;Signal;HPM_P1;HPM_P2
2024/03/08 00:02:07;0.00;0.00;0.62;0.00;0.00;0.62;4.43;3.20;;;22.10;21.80;;;;;;2263141;61;20427;-65
2024/03/08 00:04:51;0.00;0.00;0.62;0.00;0.00;0.62;4.43;3.43;;;22.10;21.80;;;;;;2263847;61;20379;-66
2024/03/08 00:07:36;0.00;0.00;0.62;0.00;0.00;0.62;4.20;3.53;;;22.10;21.80;;;;;;2263165;61;20395;-66
2024/03/08 00:10:21;0.00;0.00;0.62;0.00;0.00;0.62;5.40;3.50;;;22.00;21.70;;;;;;2263670;61;20396;-65
2024/03/08 00:13:07;0.00;0.00;0.62;0.00;0.00;0.62;3.77;3.00;;;22.00;21.70;;;;;;2263832;61;20506;-65
2024/03/08 00:15:52;0.00;0.00;0.62;0.00;0.00;0.62;4.00;3.50;;;22.10;21.80;;;;;;2259855;61;20404;-64
2024/03/08 00:18:37;0.00;0.00;0.62;0.00;0.00;0.62;4.27;3.33;;;22.00;21.70;;;;;;2263919;61;20375;-65
2024/03/08 00:21:21;0.00;0.00;0.62;0.00;0.00;0.62;4.10;3.40;;;22.00;21.70;;;;;;2263436;61;20383;-65
2024/03/08 00:24:06;0.00;0.00;0.62;0.00;0.00;0.62;4.30;3.90;;;22.00;21.80;;;;;;2263783;61;20897;-65
2024/03/08 00:26:51;0.00;0.00;0.62;0.00;0.00;0.62;5.63;3.50;;;22.00;21.70;;;;;;2264063;61;20363;-65
2024/03/08 00:29:38;0.00;0.00;0.62;0.00;0.00;0.62;3.80;3.40;;;22.00;21.80;;;;;;2263351;61;20407;-65
2024/03/08 00:32:27;0.00;0.00;0.62;0.00;0.00;0.62;3.63;3.20;;;22.00;21.80;;;;;;2263853;61;20418;-65
2024/03/08 00:35:12;0.00;0.00;0.62;0.00;0.00;0.62;3.13;2.53;;;22.00;21.80;;;;;;2263803;61;20979;-66
2024/03/08 00:37:56;0.00;0.00;0.62;0.00;0.00;0.62;3.50;3.07;;;22.00;21.70;;;;;;2263078;61;20770;-65
2024/03/08 00:40:41;0.00;0.00;0.62;0.00;0.00;0.62;3.67;2.73;;;22.00;21.70;;;;;;2263664;61;20799;-66
2024/03/08 00:43:26;0.00;0.00;0.62;0.00;0.00;0.62;3.77;2.93;;;22.00;21.70;;;;;;2260200;61;20946;-65
2024/03/08 00:46:12;0.00;0.00;0.62;0.00;0.00;0.62;4.00;3.13;;;22.00;21.70;;;;;;2263518;61;20437;-65
2024/03/08 00:48:56;0.00;0.00;0.62;0.00;0.00;0.62;3.03;2.63;;;22.00;21.70;;;;;;2263740;61;20429;-65
2024/03/08 00:51:41;0.00;0.00;0.62;0.00;0.00;0.62;4.30;3.10;;;22.00;21.70;;;;;;2263255;61;20375;-66
2024/03/08 00:54:26;0.00;0.00;0.62;0.00;0.00;0.62;3.70;2.90;;;22.00;21.70;;;;;;2263425;61;20875;-65
2024/03/08 00:57:10;0.00;0.00;0.62;0.00;0.00;0.62;5.60;3.70;;;21.90;21.70;;;;;;2263801;61;20359;-64
2024/03/08 00:59:56;0.00;0.00;0.62;0.00;0.00;0.62;3.50;3.20;;;22.00;21.70;;;;;;2263016;61;20431;-65
2024/03/08 01:02:42;0.00;0.00;0.62;0.00;0.00;0.62;6.00;3.47;;;21.90;21.70;;;;;;2263693;61;20404;-65
2024/03/08 01:05:27;0.00;0.00;0.62;0.00;0.00;0.62;3.83;3.03;;;22.00;21.70;;;;;;2263334;61;20469;-64
2024/03/08 01:08:12;0.00;0.00;0.62;0.00;0.00;0.62;3.53;3.17;;;21.90;21.70;;;;;;2263544;61;20440;-65
2024/03/08 01:10:57;0.00;0.00;0.62;0.00;0.00;0.62;4.10;3.60;;;21.90;21.70;;;;;;2260264;61;20388;-65
2024/03/08 01:13:41;0.00;0.00;0.62;0.00;0.00;0.62;3.60;3.20;;;21.90;21.70;;;;;;2259808;61;20471;-66
2024/03/08 01:16:26;0.00;0.00;0.62;0.00;0.00;0.62;4.17;3.43;;;21.90;21.70;;;;;;2263551;61;20391;-65
2024/03/08 01:19:12;0.00;0.00;0.62;0.00;0.00;0.62;3.50;3.00;;;21.90;21.70;;;;;;2263738;61;20923;-64
2024/03/08 01:21:58;0.00;0.00;0.62;0.00;0.00;0.62;3.00;2.70;;;21.90;21.70;;;;;;2262796;61;20422;-64
2024/03/08 01:24:42;0.00;0.00;0.62;0.00;0.00;0.62;4.07;2.80;;;21.90;21.70;;;;;;2260539;61;20383;-66
2024/03/08 01:27:27;0.00;0.00;0.62;0.00;0.00;0.62;3.87;3.27;;;21.90;21.70;;;;;;2263511;61;20707;-66
2024/03/08 01:30:12;0.00;0.00;0.62;0.00;0.00;0.62;3.73;3.10;;;21.90;21.70;;;;;;2693437;45;20383;-64
2024/03/08 01:32:57;0.00;0.00;0.62;0.00;0.00;0.62;3.80;3.17;;;21.90;21.70;;;;;;2263617;61;20897;-64
2024/03/08 01:35:43;0.00;0.00;0.62;0.00;0.00;0.62;3.53;2.80;;;21.90;21.70;;;;;;2263152;61;20407;-64
2024/03/08 01:38:27;0.00;0.00;0.62;0.00;0.00;0.62;3.67;3.10;;;21.90;21.70;;;;;;2263406;61;20418;-66
2024/03/08 01:41:13;0.00;0.00;0.62;0.00;0.00;0.62;4.80;3.57;;;21.90;21.70;;;;;;2263741;61;20360;-66
2024/03/08 01:43:58;0.00;0.00;0.62;0.00;0.00;0.62;3.30;3.00;;;21.90;21.70;;;;;;2262706;61;20375;-66
2024/03/08 01:46:44;0.00;0.00;0.62;0.00;0.00;0.62;3.97;3.03;;;21.90;21.70;;;;;;2263617;61;20372;-66
2024/03/08 01:49:29;0.00;0.00;0.62;0.00;0.00;0.62;3.77;3.37;;;21.90;21.70;;;;;;2263475;61;20479;-63
2024/03/08 01:52:16;0.00;0.00;0.62;0.00;0.00;0.62;3.10;2.80;;;21.90;21.70;;;;;;2544903;45;20361;-66
2024/03/08 01:55:02;0.00;0.00;0.62;0.00;0.00;0.62;3.37;2.93;;;21.90;21.70;;;;;;2259205;61;20434;-66
2024/03/08 01:57:48;0.00;0.00;0.62;0.00;0.00;0.62;3.70;3.30;;;21.90;22.20;;;;;;2260288;61;20375;-66
2024/03/08 02:00:34;0.00;0.00;0.62;0.00;0.00;0.62;3.73;3.30;;;21.80;21.60;;;;;;2263541;61;20406;-66
2024/03/08 02:03:20;0.00;0.00;0.62;0.00;0.00;0.62;3.77;3.20;;;21.80;21.60;;;;;;2263574;61;20359;-66
2024/03/08 02:06:08;0.00;0.00;0.62;0.00;0.00;0.62;3.80;3.03;;;21.80;21.60;;;;;;2259491;61;20388;-66
2024/03/08 02:08:54;0.00;0.00;0.62;0.00;0.00;0.62;4.33;3.13;;;21.80;21.60;;;;;;2263453;61;20455;-65
2024/03/08 02:11:41;0.00;0.00;0.62;0.00;0.00;0.62;3.40;3.10;;;21.80;21.60;;;;;;2263354;61;20368;-65
2024/03/08 02:14:25;0.00;0.00;0.62;0.00;0.00;0.62;2.87;2.50;;;21.80;21.60;;;;;;2584951;45;20399;-65
2024/03/08 02:17:11;0.00;0.00;0.62;0.00;0.00;0.62;4.10;3.43;;;21.80;21.60;;;;;;2259564;61;20372;-65
2024/03/08 02:19:56;0.00;0.00;0.62;0.00;0.00;0.62;3.93;3.23;;;21.80;21.60;;;;;;2261933;61;20379;-65
2024/03/08 02:22:42;0.00;0.00;0.62;0.00;0.00;0.62;3.53;3.13;;;21.80;21.60;;;;;;2263324;61;21120;-65
2024/03/08 02:25:27;0.00;0.00;0.62;0.00;0.00;0.62;5.10;3.40;;;21.80;21.60;;;;;;2262588;61;20433;-65
2024/03/08 02:28:12;0.00;0.00;0.62;0.00;0.00;0.62;3.80;2.93;;;21.80;21.60;;;;;;2262972;61;20403;-65
2024/03/08 02:30:57;0.00;0.00;0.62;0.00;0.00;0.62;3.53;3.00;;;21.80;21.60;;;;;;2263407;61;20525;-66
2024/03/08 02:33:42;0.00;0.00;0.62;0.00;0.00;0.62;3.73;3.13;;;21.80;21.60;;;;;;2262514;61;20371;-65
2024/03/08 02:36:26;0.00;0.00;0.62;0.00;0.00;0.62;3.37;2.80;;;21.80;21.60;;;;;;2262978;61;20382;-65
2024/03/08 02:39:12;0.00;0.00;0.62;0.00;0.00;0.62;3.40;2.97;;;21.80;21.60;;;;;;2262953;61;20360;-65
2024/03/08 02:41:56;0.00;0.00;0.62;0.00;0.00;0.62;3.73;3.07;;;21.70;21.50;;;;;;2263198;61;20411;-65
2024/03/08 02:44:44;0.00;0.00;0.62;0.00;0.00;0.62;3.50;3.03;;;21.70;21.50;;;;;;2260458;61;20476;-64
2024/03/08 02:47:31;0.00;0.00;0.62;0.00;0.00;0.62;3.13;2.83;;;21.70;22.00;;;;;;2263991;61;20391;-64
2024/03/08 02:50:16;0.00;0.00;0.62;0.00;0.00;0.62;5.03;2.87;;;21.70;21.50;;;;;;2263483;61;20790;-64
2024/03/08 02:53:03;0.00;0.00;0.62;0.00;0.00;0.62;3.73;3.20;;;21.70;21.50;;;;;;2644818;45;20411;-64
2024/03/08 02:55:50;0.00;0.00;0.62;0.00;0.00;0.62;3.73;2.80;;;21.70;21.50;;;;;;2260017;61;20388;-64
2024/03/08 02:58:35;0.00;0.00;0.62;0.00;0.00;0.62;3.80;2.77;;;21.70;21.50;;;;;;2262734;61;20371;-65
2024/03/08 03:01:22;0.00;0.00;0.62;0.00;0.00;0.62;3.40;3.00;;;21.70;21.50;;;;;;2260936;61;20344;-64
2024/03/08 03:04:08;0.00;0.00;0.62;0.00;0.00;0.62;3.40;3.10;;;21.70;21.50;;;;;;2260741;61;20388;-64
2024/03/08 03:06:54;0.00;0.00;0.62;0.00;0.00;0.62;3.77;3.03;;;21.70;21.50;;;;;;2263317;61;20410;-65
2024/03/08 03:09:40;0.00;0.00;0.62;0.00;0.00;0.62;3.73;3.10;;;21.70;21.50;;;;;;2260500;61;20458;-65
2024/03/08 03:12:27;0.00;0.00;0.62;0.00;0.00;0.62;3.30;3.00;;;21.70;21.50;;;;;;2263840;61;20364;-64
2024/03/08 03:15:13;0.00;0.00;0.62;0.00;0.00;0.62;4.00;3.00;;;21.70;21.50;;;;;;2280553;61;20419;-65
2024/03/08 03:18:00;0.00;0.00;0.62;0.00;0.00;0.62;3.63;3.00;;;21.70;21.50;;;;;;2264063;61;20893;-65
2024/03/08 03:20:46;0.00;0.00;0.62;0.00;0.00;0.62;3.70;3.20;;;21.70;21.50;;;;;;2263018;61;20434;-64
2024/03/08 03:23:33;0.00;0.00;0.62;0.00;0.00;0.62;3.37;3.07;;;21.60;21.50;;;;;;2260393;61;20356;-65
2024/03/08 03:26:19;0.00;0.00;0.62;0.00;0.00;0.62;4.30;3.90;;;21.70;21.50;;;;;;2263518;61;20357;-65
2024/03/08 03:29:08;0.00;0.00;0.62;0.00;0.00;0.62;3.40;2.80;;;21.70;21.50;;;;;;2260351;61;20848;-64
2024/03/08 03:31:54;0.00;0.00;0.62;0.00;0.00;0.62;3.37;2.70;;;21.70;21.50;;;;;;2263907;61;20453;-64
2024/03/08 03:34:40;0.00;0.00;0.62;0.00;0.00;0.62;3.63;2.80;;;21.60;21.40;;;;;;2263462;61;20411;-65
2024/03/08 03:37:25;0.00;0.00;0.62;0.00;0.00;0.62;3.53;3.23;;;21.60;21.40;;;;;;2582027;45;20396;-64
2024/03/08 03:40:12;0.00;0.00;0.62;0.00;0.00;0.62;3.60;2.77;;;21.60;21.40;;;;;;2257599;61;20433;-64
2024/03/08 03:42:58;0.00;0.00;0.62;0.00;0.00;0.62;4.90;2.70;;;21.60;21.40;;;;;;2263577;61;20806;-63
2024/03/08 03:45:44;0.00;0.00;0.62;0.00;0.00;0.62;3.53;2.93;;;21.60;21.40;;;;;;2264061;61;20930;-64
2024/03/08 03:48:31;0.00;0.00;0.62;0.00;0.00;0.62;6.70;3.80;;;21.60;21.40;;;;;;2264185;61;20357;-64
2024/03/08 03:51:17;0.00;0.00;0.62;0.00;0.00;0.62;3.70;3.30;;;21.60;21.40;;;;;;2263680;61;20600;-64
2024/03/08 03:54:03;0.00;0.00;0.62;0.00;0.00;0.62;3.37;2.57;;;21.60;21.40;;;;;;2264125;61;20364;-64
2024/03/08 03:56:52;0.00;0.00;0.62;0.00;0.00;0.62;3.73;2.70;;;21.60;21.40;;;;;;2263862;61;20434;-64
2024/03/08 03:59:37;0.00;0.00;0.62;0.00;0.00;0.62;3.67;3.27;;;21.60;21.40;;;;;;2670112;45;20449;-64
2024/03/08 04:02:26;0.00;0.00;0.62;0.00;0.00;0.62;5.87;3.33;;;21.60;21.40;;;;;;2260295;61;20353;-64
2024/03/08 04:05:12;0.00;0.00;0.62;0.00;0.00;0.62;4.50;3.40;;;21.60;21.40;;;;;;2256532;61;20533;-65
2024/03/08 04:07:59;0.00;0.00;0.62;0.00;0.00;0.62;4.37;3.27;;;21.60;21.40;;;;;;2260266;61;20755;-64
2024/03/08 04:10:45;0.00;0.00;0.62;0.00;0.00;0.62;2.93;2.50;;;21.60;21.40;;;;;;2260330;61;20415;-65
2024/03/08 04:13:30;0.00;0.00;0.62;0.00;0.00;0.62;3.50;3.00;;;21.60;21.40;;;;;;2259278;61;20357;-64
2024/03/08 04:16:15;0.00;0.00;0.62;0.00;0.00;0.62;2.80;2.50;;;21.60;21.40;;;;;;2259675;61;20478;-64
2024/03/08 04:19:04;0.00;0.00;0.62;0.00;0.00;0.62;3.33;2.90;;;21.60;21.40;;;;;;2262105;61;20356;-65
2024/03/08 04:21:49;0.00;0.00;0.62;0.00;0.00;0.62;4.73;3.63;;;21.60;21.40;;;;;;2496437;53;20847;-63
2024/03/08 04:24:35;0.00;0.00;0.62;0.00;0.00;0.62;3.63;3.07;;;21.60;21.40;;;;;;2260204;61;20420;-63
2024/03/08 04:27:20;0.00;0.00;0.62;0.00;0.00;0.62;3.70;3.20;;;21.50;21.30;;;;;;2263418;61;20356;-64
2024/03/08 04:30:08;0.00;0.00;0.62;0.00;0.00;0.62;4.33;3.20;;;21.50;21.30;;;;;;2263996;61;20395;-64
2024/03/08 04:32:54;0.00;0.00;0.62;0.00;0.00;0.62;3.37;2.70;;;21.50;21.40;;;;;;2263967;61;20669;-64
2024/03/08 04:35:41;0.00;0.00;0.62;0.00;0.00;0.62;3.70;2.97;;;21.50;21.30;;;;;;2263827;61;20384;-64
2024/03/08 04:38:26;0.00;0.00;0.62;0.00;0.00;0.62;3.10;2.70;;;21.50;21.30;;;;;;2260899;61;20355;-64
2024/03/08 04:41:12;0.00;0.00;0.62;0.00;0.00;0.62;3.63;3.10;;;21.50;21.30;;;;;;2260796;61;20446;-64
2024/03/08 04:43:58;0.00;0.00;0.62;0.00;0.00;0.62;3.50;3.20;;;21.50;21.30;;;;;;2787370;45;20766;-64
2024/03/08 04:46:44;0.00;0.00;0.62;0.00;0.00;0.62;4.63;3.57;;;21.50;21.40;;;;;;2264087;61;20424;-64
2024/03/08 04:49:29;0.00;0.00;0.62;0.00;0.00;0.62;3.50;3.17;;;21.50;21.30;;;;;;2258994;61;20415;-64
2024/03/08 04:52:17;0.00;0.00;0.62;0.00;0.00;0.62;4.07;3.07;;;21.50;21.30;;;;;;2260192;61;20353;-64
2024/03/08 04:55:05;0.00;0.00;0.62;0.00;0.00;0.62;4.70;3.87;;;21.50;21.40;;;;;;2259805;61;20424;-64
2024/03/08 04:57:51;0.00;0.00;0.62;0.00;0.00;0.62;4.00;3.10;;;21.50;21.30;;;;;;2262662;61;20365;-64
2024/03/08 05:00:36;0.00;0.00;0.62;0.00;0.00;0.62;5.17;3.57;;;21.50;21.30;;;;;;2264121;61;20364;-64
2024/03/08 05:03:22;0.00;0.00;0.62;0.00;0.00;0.62;3.97;3.47;;;21.50;21.30;;;;;;2260470;61;20919;-64
2024/03/08 05:06:07;0.00;0.00;0.62;0.00;0.00;0.62;4.37;3.13;;;21.40;21.20;;;;;;2259566;61;20842;-64
2024/03/08 05:08:54;0.00;0.00;0.62;0.00;0.00;0.62;3.80;3.10;;;21.50;21.30;;;;;;2259910;61;20865;-65
2024/03/08 05:11:39;0.00;0.00;0.62;0.00;0.00;0.62;3.80;3.30;;;21.40;21.30;;;;;;2263240;61;20410;-64
2024/03/08 05:14:25;0.00;0.00;0.62;0.00;0.00;0.62;3.20;2.87;;;21.40;21.30;;;;;;2263817;61;20917;-63
2024/03/08 05:17:09;0.00;0.00;0.62;0.00;0.00;0.62;4.07;3.07;;;21.40;21.30;;;;;;2263827;61;20901;-63
2024/03/08 05:19:55;0.00;0.00;0.62;0.00;0.00;0.62;5.13;3.40;;;21.40;21.30;;;;;;2259171;61;20368;-64
2024/03/08 05:22:42;0.00;0.00;0.62;0.00;0.00;0.62;3.13;2.83;;;21.40;21.30;;;;;;2259588;61;20411;-63
2024/03/08 05:25:28;0.00;0.00;0.62;0.00;0.00;0.62;4.10;3.07;;;21.40;21.20;;;;;;2260514;61;20384;-64
2024/03/08 05:28:13;0.00;0.00;0.62;0.00;0.00;0.62;4.20;3.47;;;21.40;21.20;;;;;;2496289;53;20353;-64
2024/03/08 05:30:59;0.00;0.00;0.62;0.00;0.00;0.62;4.83;3.20;;;21.40;21.20;;;;;;2256665;61;20450;-65
2024/03/08 05:33:44;0.00;0.00;0.62;0.00;0.00;0.62;3.97;3.43;;;21.40;21.20;;;;;;2260415;61;20479;-64
2024/03/08 05:36:30;0.00;0.00;0.62;0.00;0.00;0.62;3.93;3.00;;;21.40;21.20;;;;;;2260738;61;20889;-64
2024/03/08 05:39:15;0.00;0.00;0.62;0.00;0.00;0.62;3.63;3.23;;;21.40;21.30;;;;;;2263877;61;20353;-63
2024/03/08 05:42:03;0.00;0.00;0.62;0.00;0.00;0.62;4.30;3.53;;;21.30;21.20;;;;;;2256261;61;20400;-64
2024/03/08 05:44:49;0.00;0.00;0.62;0.00;0.00;0.62;4.50;2.90;;;21.30;21.20;;;;;;2259806;61;20388;-64
2024/03/08 05:47:34;0.00;0.00;0.62;0.00;0.00;0.62;4.97;3.37;;;21.30;21.20;;;;;;2259135;61;20424;-65
2024/03/08 05:50:19;0.00;0.00;0.62;0.00;0.00;0.62;3.47;2.80;;;21.30;21.10;;;;;;2263617;61;20893;-64
2024/03/08 05:53:07;0.00;0.00;0.62;0.00;0.00;0.62;3.40;3.00;;;21.30;21.20;;;;;;2263889;61;20399;-65
2024/03/08 05:55:52;0.00;0.00;0.62;0.00;0.00;0.62;4.30;3.47;;;21.30;21.20;;;;;;2263407;61;20392;-64
2024/03/08 05:58:38;0.00;0.00;0.62;0.00;0.00;0.62;3.50;3.20;;;21.30;21.10;;;;;;2263802;61;20371;-64
2024/03/08 06:01:24;0.00;0.00;0.62;0.00;0.00;0.62;3.10;2.77;;;21.30;21.10;;;;;;2260624;61;20372;-64
2024/03/08 06:04:10;0.00;0.00;0.62;0.00;0.00;0.62;4.40;3.30;;;21.30;21.20;;;;;;2263470;61;20375;-64
2024/03/08 06:06:57;0.00;0.00;0.62;0.00;0.00;0.62;4.23;3.40;;;21.30;21.20;;;;;;2263902;61;20356;-64
2024/03/08 06:09:45;0.00;0.00;0.62;0.00;0.00;0.62;4.40;3.37;;;21.30;21.20;;;;;;2263824;61;20392;-64
2024/03/08 06:12:33;0.00;0.00;0.62;0.00;0.00;0.62;3.90;3.23;;;21.30;21.20;;;;;;2263847;61;20462;-65
2024/03/08 06:15:20;0.00;0.00;0.62;0.00;0.00;0.62;3.70;2.70;;;21.30;21.70;;;;;;2263729;61;20434;-65
2024/03/08 06:18:07;0.00;0.00;0.62;0.00;0.00;0.62;4.30;3.50;;;21.30;21.20;;;;;;2263413;61;20401;-65
2024/03/08 06:20:52;0.00;0.00;0.62;0.00;0.00;0.62;4.00;3.43;;;21.30;21.10;;;;;;2263800;61;20981;-65
2024/03/08 06:23:38;0.00;0.00;0.62;0.00;0.00;0.62;3.80;2.83;;;21.30;21.10;;;;;;2263685;61;20356;-64
2024/03/08 06:26:24;0.00;0.00;0.62;0.00;0.00;0.62;3.57;3.17;;;21.30;21.20;;;;;;2263501;61;21066;-64
2024/03/08 06:29:10;0.00;0.00;0.62;0.00;0.00;0.62;4.70;3.33;;;21.30;21.10;;;;;;2263953;61;20344;-64
2024/03/08 06:31:56;0.00;0.00;0.62;0.00;0.00;0.62;6.77;3.50;;;21.30;21.20;;;;;;2263516;61;20375;-64
2024/03/08 06:34:43;0.00;0.00;0.62;0.00;0.00;0.62;3.67;3.37;;;21.30;21.10;;;;;;2263507;61;20391;-64
2024/03/08 06:37:28;0.00;0.00;0.62;0.00;0.00;0.62;4.07;3.10;;;21.30;21.10;;;;;;2264019;61;20418;-64
2024/03/08 06:40:14;0.00;0.00;0.62;0.00;0.00;0.62;4.43;3.73;;;21.30;21.10;;;;;;2263635;61;20453;-64
2024/03/08 06:43:00;0.00;0.00;0.62;0.00;0.00;0.62;4.73;4.30;;;21.20;21.10;;;;;;2263866;61;20363;-65
2024/03/08 06:45:48;0.00;0.00;0.62;0.00;0.00;0.62;4.73;3.60;;;21.20;21.10;;;;;;2263884;61;20434;-65
2024/03/08 06:48:37;0.00;0.00;0.62;0.00;0.00;0.62;4.37;3.33;;;21.20;21.10;;;;;;2260426;61;20417;-64
2024/03/08 06:51:22;0.00;0.00;0.62;0.00;0.00;0.62;3.70;3.40;;;21.20;21.10;;;;;;2264029;61;20434;-65
2024/03/08 06:54:08;0.00;0.00;0.62;0.00;0.00;0.62;3.80;3.30;;;21.20;21.10;;;;;;2263477;61;20421;-64
2024/03/08 06:56:55;0.00;0.00;0.62;0.00;0.00;0.62;6.20;4.10;;;21.20;21.10;;;;;;2263754;61;20422;-64
2024/03/08 06:59:40;0.00;0.00;0.62;0.00;0.00;0.62;5.87;3.40;;;21.20;21.10;;;;;;2264060;61;20853;-64
2024/03/08 07:02:26;0.00;0.00;0.62;0.00;0.00;0.62;4.73;4.17;;;21.20;21.10;;;;;;2263426;61;20766;-65
2024/03/08 07:05:13;0.00;0.00;0.62;0.00;0.00;0.62;4.40;3.13;;;21.20;21.10;;;;;;2264008;61;20418;-64
2024/03/08 07:07:58;0.00;0.00;0.62;0.00;0.00;0.62;5.30;4.23;;;21.20;21.10;;;;;;2263561;61;20423;-65
2024/03/08 07:10:45;0.00;0.00;0.62;0.00;0.00;0.62;5.90;4.50;;;21.20;21.10;;;;;;2263483;61;20391;-64
2024/03/08 07:13:30;0.00;0.00;0.62;0.00;0.00;0.62;5.90;4.50;;;21.20;21.10;;;;;;2261191;61;20368;-65
2024/03/08 07:16:17;0.00;0.00;0.62;0.00;0.00;0.62;6.23;5.33;;;21.20;21.10;;;;;;2257764;61;20998;-65
2024/03/08 07:19:03;0.00;0.00;0.62;0.00;0.00;0.62;6.73;5.73;;;21.20;21.10;;;;;;2263480;61;20507;-64
2024/03/08 07:21:50;0.00;0.00;0.62;0.00;0.00;0.62;5.73;5.13;;;21.20;21.10;;;;;;2264403;61;20414;-65
2024/03/08 07:27:23;0.00;0.00;0.62;0.00;0.00;0.62;6.67;5.87;;;21.20;21.10;;;;;;2264476;61;21236;-67
2024/03/08 07:30:10;0.00;0.00;0.62;0.00;0.00;0.62;7.80;5.70;;;21.20;21.10;;;;;;2264053;61;20433;-65
2024/03/08 07:32:57;0.00;0.00;0.62;0.00;0.00;0.62;9.33;6.60;;;21.20;21.10;;;;;;2261966;61;20403;-66
2024/03/08 07:35:44;0.00;0.00;0.62;0.00;0.00;0.62;7.23;5.97;;;21.20;21.10;;;;;;2264260;61;20387;-65
2024/03/08 07:38:31;0.00;0.00;0.62;0.00;0.00;0.62;6.90;6.17;;;21.20;21.10;;;;;;2264002;61;20364;-66
2024/03/08 07:41:16;0.00;0.00;0.62;0.00;0.00;0.62;7.50;6.10;;;21.20;21.10;;;;;;2264030;61;20417;-66
2024/03/08 07:43:43;0.00;0.00;0.62;0.00;0.00;0.62;7.17;6.20;;;21.20;21.20;;;;;;2264157;61;20368;-65
2024/03/08 07:46:29;0.00;0.00;0.62;0.00;0.00;0.62;9.43;7.50;;;21.20;21.20;;;;;;2263349;61;20376;-65
2024/03/08 07:49:15;0.00;0.00;0.62;0.00;0.00;0.62;9.50;8.47;;;21.20;21.10;;;;;;2263914;61;20394;-65
2024/03/08 07:52:00;0.00;0.00;0.62;0.00;0.00;0.62;10.13;8.13;;;21.20;21.20;;;;;;2264492;61;20751;-65
2024/03/08 07:54:48;0.00;0.00;0.62;0.00;0.00;0.62;10.20;8.07;;;21.20;21.20;;;;;;2263499;61;20435;-65
2024/03/08 07:57:34;0.00;0.00;0.62;0.00;0.00;0.62;9.60;8.40;;;21.20;21.20;;;;;;2264545;61;20364;-65
2024/03/08 08:00:21;0.00;0.00;0.62;0.00;0.00;0.62;11.10;8.60;;;21.20;21.20;;;;;;2264017;61;20403;-66
2024/03/08 08:03:08;0.00;0.00;0.62;0.00;0.00;0.62;9.27;8.20;;;21.20;21.20;;;;;;2263957;61;20413;-66
2024/03/08 08:05:53;0.00;0.00;0.62;0.00;0.00;0.62;11.80;9.20;;;21.20;21.20;;;;;;2264477;61;20380;-65
2024/03/08 08:08:38;0.00;0.00;0.62;0.00;0.00;0.62;8.80;7.90;;;21.20;21.30;;;;;;2262815;61;20372;-67
2024/03/08 08:11:27;0.00;0.00;0.62;0.00;0.00;0.62;10.27;9.10;;;21.20;21.30;;;;;;2263928;61;20387;-67
2024/03/08 08:14:12;0.00;0.00;0.62;0.00;0.00;0.62;10.27;8.27;;;21.20;21.30;;;;;;2263667;61;20387;-68
2024/03/08 08:16:57;0.00;0.00;0.62;0.00;0.00;0.62;10.70;9.37;;;21.20;21.30;;;;;;2431121;53;20371;-67
2024/03/08 08:19:41;0.00;0.00;0.62;0.00;0.00;0.62;15.20;10.17;;;21.20;21.30;;;;;;2260649;61;20453;-67
2024/03/08 08:22:27;0.00;0.00;0.62;0.00;0.00;0.62;13.50;10.10;;;21.20;21.30;;;;;;2263277;61;20767;-67
2024/03/08 08:25:15;0.00;0.00;0.62;0.00;0.00;0.62;12.13;9.70;;;21.20;21.30;;;;;;2260355;61;20836;-66
2024/03/08 08:28:03;0.00;0.00;0.62;0.00;0.00;0.62;12.07;9.77;;;21.20;21.30;;;;;;2263858;61;20403;-66
2024/03/08 08:30:51;0.00;0.00;0.62;0.00;0.00;0.62;12.23;10.93;;;21.20;21.30;;;;;;2259777;61;20387;-67
2024/03/08 08:33:36;0.00;0.00;0.62;0.00;0.00;0.62;11.23;9.93;;;21.20;21.30;;;;;;2263787;61;20899;-67
2024/03/08 08:36:21;0.00;0.00;0.62;0.00;0.00;0.62;12.53;10.53;;;21.20;21.20;;;;;;2263876;61;20449;-67
2024/03/08 08:39:12;0.00;0.00;0.62;0.00;0.00;0.62;13.30;11.83;;;21.20;21.20;;;;;;2262960;61;20467;-66
2024/03/08 08:41:57;0.00;0.00;0.62;0.00;0.00;0.62;11.80;10.20;;;21.20;21.20;;;;;;2263897;61;20392;-68
2024/03/08 08:44:43;0.00;0.00;0.62;0.00;0.00;0.62;10.90;9.77;;;21.20;21.20;;;;;;2263303;61;21131;-67
2024/03/08 08:47:28;0.00;0.00;0.62;0.00;0.00;0.62;11.83;10.63;;;21.20;21.20;;;;;;2263340;61;20488;-66
2024/03/08 08:50:13;0.00;0.00;0.62;0.00;0.00;0.62;12.20;10.40;;;21.20;21.20;;;;;;2263793;61;20398;-66
2024/03/08 08:52:58;0.00;0.00;0.62;0.00;0.00;0.62;12.87;11.03;;;21.20;21.30;;;;;;2263191;61;20375;-67
2024/03/08 08:55:43;0.00;0.00;0.62;0.00;0.00;0.62;12.63;10.10;;;21.30;21.30;;;;;;2263484;61;20380;-67
2024/03/08 08:58:27;0.00;0.00;0.62;0.00;0.00;0.62;12.77;11.47;;;21.30;21.30;;;;;;2263698;61;20405;-67
2024/03/08 09:01:13;0.00;0.00;0.62;0.00;0.00;0.62;13.50;11.30;;;21.30;21.20;;;;;;2262885;61;20770;-66
2024/03/08 09:03:57;0.00;0.00;0.62;0.00;0.00;0.62;12.50;10.33;;;21.30;21.30;;;;;;2263835;61;20387;-66
2024/03/08 09:06:43;0.00;0.00;0.62;0.00;0.00;0.62;12.70;10.93;;;21.30;21.30;;;;;;2263386;61;20359;-66
2024/03/08 09:09:29;0.00;0.00;0.62;0.00;0.00;0.62;14.70;10.93;;;21.30;21.20;;;;;;2258352;61;20360;-66
2024/03/08 09:12:14;0.00;0.00;0.62;0.00;0.00;0.62;11.67;10.23;;;21.30;21.20;;;;;;2259723;61;20783;-67
2024/03/08 09:14:59;0.00;0.00;0.62;0.00;0.00;0.62;13.07;10.37;;;21.30;21.20;;;;;;2261401;61;20434;-66
2024/03/08 09:17:45;0.00;0.00;0.62;0.00;0.00;0.62;12.13;10.60;;;21.30;21.20;;;;;;2503727;53;20357;-66
2024/03/08 09:20:31;0.00;0.00;0.62;0.00;0.00;0.62;12.73;11.03;;;21.30;21.20;;;;;;2259593;61;20368;-66
2024/03/08 09:23:16;0.00;0.00;0.62;0.00;0.00;0.62;12.10;10.40;;;21.30;21.20;;;;;;2262597;61;21003;-66
2024/03/08 09:26:02;0.00;0.00;0.62;0.00;0.00;0.62;12.47;11.17;;;21.30;21.20;;;;;;2263591;61;20403;-67
2024/03/08 09:28:47;0.00;0.00;0.62;0.00;0.00;0.62;12.43;11.13;;;21.30;21.20;;;;;;2263387;61;20412;-66
2024/03/08 09:31:31;0.00;0.00;0.62;0.00;0.00;0.62;12.70;10.97;;;21.30;21.20;;;;;;2263040;61;20474;-67
2024/03/08 09:34:18;0.00;0.00;0.62;0.00;0.00;0.62;11.10;9.90;;;21.40;21.20;;;;;;2263430;61;20423;-67
2024/03/08 09:37:04;0.00;0.00;0.62;0.00;0.00;0.62;12.73;11.40;;;21.40;21.20;;;;;;2263332;61;21007;-66
2024/03/08 09:39:49;0.00;0.00;0.62;0.00;0.00;0.62;10.90;9.80;;;21.40;21.20;;;;;;2586025;45;20411;-66
2024/03/08 09:42:37;0.00;0.00;0.62;0.00;0.00;0.62;12.90;11.10;;;21.40;21.20;;;;;;2259525;61;20894;-67
2024/03/08 09:45:22;0.00;0.00;0.62;0.00;0.00;0.62;12.57;11.27;;;21.40;21.20;;;;;;2262335;61;20468;-66
2024/03/08 09:48:14;0.00;0.00;0.62;0.00;0.00;0.62;12.73;11.33;;;21.40;21.20;;;;;;2263695;61;20536;-67
2024/03/08 09:51:00;0.00;0.00;0.62;0.00;0.00;0.62;13.00;11.70;;;21.40;21.20;;;;;;2263114;61;20392;-66
2024/03/08 09:53:46;0.00;0.00;0.62;0.00;0.00;0.62;12.33;11.03;;;21.40;21.20;;;;;;2263153;61;20546;-65
2024/03/08 09:56:35;0.00;0.00;0.62;0.00;0.00;0.62;12.90;10.83;;;21.50;21.20;;;;;;2260251;61;20464;-65
2024/03/08 10:02:14;0.00;0.00;0.62;0.00;0.00;0.62;14.67;12.27;;;21.50;21.20;;;;;;2656711;45;20396;-66
2024/03/08 10:04:59;0.00;0.00;0.62;0.00;0.00;0.62;15.13;13.70;;;21.50;21.20;;;;;;2259571;61;20380;-65
2024/03/08 10:07:46;0.00;0.00;0.62;0.00;0.00;0.62;12.83;11.53;;;21.50;21.20;;;;;;2262399;61;21028;-66
2024/03/08 10:10:31;0.00;0.00;0.62;0.00;0.00;0.62;12.00;10.80;;;21.50;21.20;;;;;;2263590;61;20380;-65
2024/03/08 10:13:16;0.00;0.00;0.62;0.00;0.00;0.62;11.90;10.70;;;21.60;21.20;;;;;;2263161;61;20370;-65
2024/03/08 10:16:01;0.00;0.00;0.62;0.00;0.00;0.62;13.73;12.30;;;21.60;21.80;;;;;;2263058;61;20391;-66
2024/03/08 10:18:46;0.00;0.00;0.62;0.00;0.00;0.62;14.63;11.83;;;21.60;21.20;;;;;;2263777;61;21269;-65
2024/03/08 10:21:32;0.00;0.00;0.62;0.00;0.00;0.62;13.67;11.57;;;21.60;21.20;;;;;;2263379;61;20932;-66
2024/03/08 10:24:19;0.00;0.00;0.62;0.00;0.00;0.62;10.73;9.63;;;21.60;21.20;;;;;;2512020;53;20379;-66
2024/03/08 10:27:04;0.00;0.00;0.62;0.00;0.00;0.62;13.17;11.13;;;21.60;21.20;;;;;;2263756;61;20831;-66
2024/03/08 10:29:51;0.00;0.00;0.62;0.00;0.00;0.62;12.60;11.30;;;21.70;21.20;;;;;;2262532;61;20372;-66
2024/03/08 10:32:36;0.00;0.00;0.62;0.00;0.00;0.62;12.00;10.63;;;21.70;21.20;;;;;;2263524;61;20376;-66
2024/03/08 10:35:20;0.00;0.00;0.62;0.00;0.00;0.62;13.10;11.80;;;21.70;21.20;;;;;;2262994;61;20438;-65
2024/03/08 10:38:11;0.00;0.00;0.62;0.00;0.00;0.62;11.70;10.40;;;21.70;21.20;;;;;;2263190;61;20371;-66
2024/03/08 10:40:57;0.00;0.00;0.62;0.00;0.00;0.62;10.90;9.80;;;21.70;21.20;;;;;;2263321;61;20919;-66
2024/03/08 10:44:00;0.00;0.00;0.62;0.00;0.00;0.62;13.30;11.90;;;21.80;21.20;;;;;;2263370;61;20380;-66
2024/03/08 10:47:00;0.00;0.00;0.62;0.00;0.00;0.62;13.27;11.87;;;21.80;21.20;;;;;;2263508;61;20399;-66
2024/03/08 10:50:03;0.00;0.00;0.62;0.00;0.00;0.62;13.77;11.47;;;21.80;21.20;;;;;;2263594;61;20375;-65
2024/03/08 10:52:51;0.00;0.00;0.62;0.00;0.00;0.62;12.30;11.00;;;21.80;21.20;;;;;;2263021;61;20781;-66
2024/03/08 10:55:40;0.00;0.00;0.62;0.00;0.00;0.62;12.67;10.50;;;21.80;21.20;;;;;;2263286;61;20453;-66
2024/03/08 10:58:28;0.00;0.00;0.62;0.00;0.00;0.62;14.30;12.67;;;21.90;21.30;;;;;;2263129;61;20399;-65